sensor_id;sensor_type;location;lat;lon;timestamp;temperature;humidity
65203;HTU21D;51788;45.124;38.966;2022-08-01T00:01:08;26.62;58.64
65203;HTU21D;51788;45.124;38.966;2022-08-01T00:03:34;26.55;58.65
65203;HTU21D;51788;45.124;38.966;2022-08-01T00:06:00;26.54;58.73
65203;HTU21D;51788;45.124;38.966;2022-08-01T00:08:26;26.53;58.74
65203;HTU21D;51788;45.124;38.966;2022-08-01T00:10:52;26.47;58.81
65203;HTU21D;51788;45.124;38.966;2022-08-01T00:13:18;26.40;58.96
65203;HTU21D;51788;45.124;38.966;2022-08-01T00:15:44;26.34;59.11
65203;HTU21D;51788;45.124;38.966;2022-08-01T00:18:10;26.28;59.21
65203;HTU21D;51788;45.124;38.966;2022-08-01T00:20:36;26.24;59.31
65203;HTU21D;51788;45.124;38.966;2022-08-01T00:23:03;26.20;59.38
65203;HTU21D;51788;45.124;38.966;2022-08-01T00:25:29;26.15;59.48
65203;HTU21D;51788;45.124;38.966;2022-08-01T00:27:55;26.09;59.63
65203;HTU21D;51788;45.124;38.966;2022-08-01T00:30:21;26.06;59.76
65203;HTU21D;51788;45.124;38.966;2022-08-01T00:32:47;26.01;59.91
65203;HTU21D;51788;45.124;38.966;2022-08-01T00:35:13;25.96;60.06
65203;HTU21D;51788;45.124;38.966;2022-08-01T00:37:39;25.93;60.21
65203;HTU21D;51788;45.124;38.966;2022-08-01T00:40:06;25.89;60.30
65203;HTU21D;51788;45.124;38.966;2022-08-01T00:42:32;25.87;60.35
65203;HTU21D;51788;45.124;38.966;2022-08-01T00:44:59;25.82;60.47
65203;HTU21D;51788;45.124;38.966;2022-08-01T00:47:25;25.80;60.64
65203;HTU21D;51788;45.124;38.966;2022-08-01T00:49:51;25.75;60.74
65203;HTU21D;51788;45.124;38.966;2022-08-01T00:52:17;25.72;60.88
65203;HTU21D;51788;45.124;38.966;2022-08-01T00:54:43;25.68;61.07
65203;HTU21D;51788;45.124;38.966;2022-08-01T00:57:10;25.68;61.15
65203;HTU21D;51788;45.124;38.966;2022-08-01T00:59:36;25.64;61.25
65203;HTU21D;51788;45.124;38.966;2022-08-01T01:02:02;25.60;61.38
65203;HTU21D;51788;45.124;38.966;2022-08-01T01:04:28;25.57;61.53
65203;HTU21D;51788;45.124;38.966;2022-08-01T01:06:59;25.49;61.82
65203;HTU21D;51788;45.124;38.966;2022-08-01T01:09:29;25.43;62.07
65203;HTU21D;51788;45.124;38.966;2022-08-01T01:12:02;25.36;62.37
65203;HTU21D;51788;45.124;38.966;2022-08-01T01:17:27;25.24;62.78
65203;HTU21D;51788;45.124;38.966;2022-08-01T01:19:55;25.20;62.88
65203;HTU21D;51788;45.124;38.966;2022-08-01T01:22:57;25.17;63.06
65203;HTU21D;51788;45.124;38.966;2022-08-01T01:30:52;25.12;63.18
65203;HTU21D;51788;45.124;38.966;2022-08-01T01:33:21;25.03;63.49
65203;HTU21D;51788;45.124;38.966;2022-08-01T01:35:52;24.98;63.79
65203;HTU21D;51788;45.124;38.966;2022-08-01T01:38:24;24.97;63.75
65203;HTU21D;51788;45.124;38.966;2022-08-01T01:40:52;24.92;63.97
65203;HTU21D;51788;45.124;38.966;2022-08-01T01:43:18;24.90;64.10
65203;HTU21D;51788;45.124;38.966;2022-08-01T01:45:46;24.86;64.27
65203;HTU21D;51788;45.124;38.966;2022-08-01T01:48:14;24.80;64.50
65203;HTU21D;51788;45.124;38.966;2022-08-01T01:50:44;24.76;64.68
65203;HTU21D;51788;45.124;38.966;2022-08-01T01:53:12;24.68;64.99
65203;HTU21D;51788;45.124;38.966;2022-08-01T01:55:40;24.63;65.19
65203;HTU21D;51788;45.124;38.966;2022-08-01T01:58:08;24.57;65.27
65203;HTU21D;51788;45.124;38.966;2022-08-01T02:00:36;24.58;65.40
65203;HTU21D;51788;45.124;38.966;2022-08-01T02:03:05;24.56;65.50
65203;HTU21D;51788;45.124;38.966;2022-08-01T02:05:33;24.54;65.59
65203;HTU21D;51788;45.124;38.966;2022-08-01T02:08:02;24.54;65.67
65203;HTU21D;51788;45.124;38.966;2022-08-01T02:10:31;24.49;65.80
65203;HTU21D;51788;45.124;38.966;2022-08-01T02:12:58;24.45;66.02
65203;HTU21D;51788;45.124;38.966;2022-08-01T02:15:26;24.40;66.21
65203;HTU21D;51788;45.124;38.966;2022-08-01T02:17:54;24.41;66.24
65203;HTU21D;51788;45.124;38.966;2022-08-01T02:20:22;24.41;66.35
65203;HTU21D;51788;45.124;38.966;2022-08-01T02:22:53;24.35;66.80
65203;HTU21D;51788;45.124;38.966;2022-08-01T02:26:00;24.33;66.89
65203;HTU21D;51788;45.124;38.966;2022-08-01T02:28:29;24.34;66.69
65203;HTU21D;51788;45.124;38.966;2022-08-01T02:31:06;24.35;66.67
65203;HTU21D;51788;45.124;38.966;2022-08-01T02:33:39;24.35;66.90
65203;HTU21D;51788;45.124;38.966;2022-08-01T02:36:07;24.36;66.81
65203;HTU21D;51788;45.124;38.966;2022-08-01T02:38:41;24.41;66.98
65203;HTU21D;51788;45.124;38.966;2022-08-01T02:41:11;24.41;66.87
65203;HTU21D;51788;45.124;38.966;2022-08-01T02:43:42;24.41;66.86
65203;HTU21D;51788;45.124;38.966;2022-08-01T02:46:12;24.41;66.94
65203;HTU21D;51788;45.124;38.966;2022-08-01T02:48:42;24.44;66.98
65203;HTU21D;51788;45.124;38.966;2022-08-01T02:51:09;24.45;67.00
65203;HTU21D;51788;45.124;38.966;2022-08-01T02:53:38;24.47;67.09
65203;HTU21D;51788;45.124;38.966;2022-08-01T02:56:08;24.55;66.97
65203;HTU21D;51788;45.124;38.966;2022-08-01T02:58:36;24.62;66.93
65203;HTU21D;51788;45.124;38.966;2022-08-01T03:01:05;24.68;66.88
65203;HTU21D;51788;45.124;38.966;2022-08-01T03:03:32;24.72;66.81
65203;HTU21D;51788;45.124;38.966;2022-08-01T03:05:59;24.77;66.80
65203;HTU21D;51788;45.124;38.966;2022-08-01T03:08:27;24.82;66.81
65203;HTU21D;51788;45.124;38.966;2022-08-01T03:10:55;24.89;66.66
65203;HTU21D;51788;45.124;38.966;2022-08-01T03:13:23;24.97;66.58
65203;HTU21D;51788;45.124;38.966;2022-08-01T03:15:52;24.99;66.58
65203;HTU21D;51788;45.124;38.966;2022-08-01T03:18:19;25.07;66.49
65203;HTU21D;51788;45.124;38.966;2022-08-01T03:20:48;25.12;66.48
65203;HTU21D;51788;45.124;38.966;2022-08-01T03:23:16;25.19;66.39
65203;HTU21D;51788;45.124;38.966;2022-08-01T03:25:44;25.29;66.24
65203;HTU21D;51788;45.124;38.966;2022-08-01T03:28:13;25.33;66.09
65203;HTU21D;51788;45.124;38.966;2022-08-01T03:30:40;25.38;65.95
65203;HTU21D;51788;45.124;38.966;2022-08-01T03:33:06;25.42;65.93
65203;HTU21D;51788;45.124;38.966;2022-08-01T03:35:48;25.54;65.81
65203;HTU21D;51788;45.124;38.966;2022-08-01T03:38:19;25.63;65.53
65203;HTU21D;51788;45.124;38.966;2022-08-01T03:40:54;25.69;65.45
65203;HTU21D;51788;45.124;38.966;2022-08-01T03:46:01;25.76;65.31
65203;HTU21D;51788;45.124;38.966;2022-08-01T03:48:32;25.84;65.08
65203;HTU21D;51788;45.124;38.966;2022-08-01T03:51:03;25.92;64.93
65203;HTU21D;51788;45.124;38.966;2022-08-01T03:53:30;26.02;64.75
65203;HTU21D;51788;45.124;38.966;2022-08-01T03:56:00;26.13;64.50
65203;HTU21D;51788;45.124;38.966;2022-08-01T03:58:29;26.25;64.30
65203;HTU21D;51788;45.124;38.966;2022-08-01T04:00:55;26.38;63.98
65203;HTU21D;51788;45.124;38.966;2022-08-01T04:03:23;26.49;63.80
65203;HTU21D;51788;45.124;38.966;2022-08-01T04:05:49;26.57;63.66
65203;HTU21D;51788;45.124;38.966;2022-08-01T04:08:16;26.65;63.43
65203;HTU21D;51788;45.124;38.966;2022-08-01T04:10:42;26.64;63.47
65203;HTU21D;51788;45.124;38.966;2022-08-01T04:13:08;26.69;63.41
65203;HTU21D;51788;45.124;38.966;2022-08-01T04:15:34;26.77;63.24
65203;HTU21D;51788;45.124;38.966;2022-08-01T04:18:00;26.82;63.22
65203;HTU21D;51788;45.124;38.966;2022-08-01T04:20:26;26.96;63.02
65203;HTU21D;51788;45.124;38.966;2022-08-01T04:22:52;27.06;62.87
65203;HTU21D;51788;45.124;38.966;2022-08-01T04:25:35;27.09;62.94
65203;HTU21D;51788;45.124;38.966;2022-08-01T04:28:04;27.07;63.00
65203;HTU21D;51788;45.124;38.966;2022-08-01T04:30:34;27.07;63.05
65203;HTU21D;51788;45.124;38.966;2022-08-01T04:33:04;27.10;63.17
65203;HTU21D;51788;45.124;38.966;2022-08-01T04:35:32;27.20;63.11
65203;HTU21D;51788;45.124;38.966;2022-08-01T04:38:01;27.31;63.03
65203;HTU21D;51788;45.124;38.966;2022-08-01T04:40:29;27.35;63.06
65203;HTU21D;51788;45.124;38.966;2022-08-01T04:42:56;27.36;63.17
65203;HTU21D;51788;45.124;38.966;2022-08-01T04:45:22;27.43;63.23
65203;HTU21D;51788;45.124;38.966;2022-08-01T04:47:49;27.45;63.27
65203;HTU21D;51788;45.124;38.966;2022-08-01T04:50:15;27.49;63.37
65203;HTU21D;51788;45.124;38.966;2022-08-01T04:52:41;27.51;63.40
65203;HTU21D;51788;45.124;38.966;2022-08-01T04:55:08;27.51;63.34
65203;HTU21D;51788;45.124;38.966;2022-08-01T04:57:38;27.52;63.46
65203;HTU21D;51788;45.124;38.966;2022-08-01T05:00:06;27.60;63.26
65203;HTU21D;51788;45.124;38.966;2022-08-01T05:02:32;27.65;63.16
65203;HTU21D;51788;45.124;38.966;2022-08-01T05:04:58;27.68;63.21
65203;HTU21D;51788;45.124;38.966;2022-08-01T05:07:24;27.78;63.16
65203;HTU21D;51788;45.124;38.966;2022-08-01T05:09:50;27.94;63.01
65203;HTU21D;51788;45.124;38.966;2022-08-01T05:12:17;28.05;62.72
65203;HTU21D;51788;45.124;38.966;2022-08-01T05:14:43;28.09;62.76
65203;HTU21D;51788;45.124;38.966;2022-08-01T05:17:09;28.10;62.94
65203;HTU21D;51788;45.124;38.966;2022-08-01T05:19:37;28.15;63.17
65203;HTU21D;51788;45.124;38.966;2022-08-01T05:22:05;28.23;63.32
65203;HTU21D;51788;45.124;38.966;2022-08-01T05:24:35;28.28;63.37
65203;HTU21D;51788;45.124;38.966;2022-08-01T05:27:03;28.19;63.66
65203;HTU21D;51788;45.124;38.966;2022-08-01T05:29:29;28.26;63.66
65203;HTU21D;51788;45.124;38.966;2022-08-01T05:31:55;28.35;63.56
65203;HTU21D;51788;45.124;38.966;2022-08-01T05:34:22;28.42;63.80
65203;HTU21D;51788;45.124;38.966;2022-08-01T05:36:48;28.55;63.73
65203;HTU21D;51788;45.124;38.966;2022-08-01T05:39:14;28.80;63.54
65203;HTU21D;51788;45.124;38.966;2022-08-01T05:41:41;28.90;63.18
65203;HTU21D;51788;45.124;38.966;2022-08-01T05:44:08;28.94;63.44
65203;HTU21D;51788;45.124;38.966;2022-08-01T05:46:34;29.08;63.37
65203;HTU21D;51788;45.124;38.966;2022-08-01T05:49:02;29.20;62.98
65203;HTU21D;51788;45.124;38.966;2022-08-01T05:51:28;29.11;63.20
65203;HTU21D;51788;45.124;38.966;2022-08-01T05:53:55;29.06;63.37
65203;HTU21D;51788;45.124;38.966;2022-08-01T05:56:21;29.00;63.52
65203;HTU21D;51788;45.124;38.966;2022-08-01T05:58:48;29.14;63.29
65203;HTU21D;51788;45.124;38.966;2022-08-01T06:01:15;29.12;63.23
65203;HTU21D;51788;45.124;38.966;2022-08-01T06:03:41;29.00;63.50
65203;HTU21D;51788;45.124;38.966;2022-08-01T06:06:07;28.89;63.69
65203;HTU21D;51788;45.124;38.966;2022-08-01T06:08:34;28.88;63.91
65203;HTU21D;51788;45.124;38.966;2022-08-01T06:11:00;28.94;63.91
65203;HTU21D;51788;45.124;38.966;2022-08-01T06:13:26;28.92;63.76
65203;HTU21D;51788;45.124;38.966;2022-08-01T06:15:52;29.02;63.60
65203;HTU21D;51788;45.124;38.966;2022-08-01T06:18:18;29.12;63.41
65203;HTU21D;51788;45.124;38.966;2022-08-01T06:20:44;29.15;63.37
65203;HTU21D;51788;45.124;38.966;2022-08-01T06:23:10;29.18;63.28
65203;HTU21D;51788;45.124;38.966;2022-08-01T06:25:36;29.23;63.37
65203;HTU21D;51788;45.124;38.966;2022-08-01T06:28:02;29.37;63.38
65203;HTU21D;51788;45.124;38.966;2022-08-01T06:30:29;29.61;62.72
65203;HTU21D;51788;45.124;38.966;2022-08-01T06:32:55;29.58;62.76
65203;HTU21D;51788;45.124;38.966;2022-08-01T06:35:24;29.73;62.47
65203;HTU21D;51788;45.124;38.966;2022-08-01T06:37:50;29.79;62.05
65203;HTU21D;51788;45.124;38.966;2022-08-01T06:40:16;29.65;62.41
65203;HTU21D;51788;45.124;38.966;2022-08-01T06:42:44;29.71;62.42
65203;HTU21D;51788;45.124;38.966;2022-08-01T06:45:12;29.90;61.97
65203;HTU21D;51788;45.124;38.966;2022-08-01T06:47:40;30.03;61.63
65203;HTU21D;51788;45.124;38.966;2022-08-01T06:50:07;30.07;61.53
65203;HTU21D;51788;45.124;38.966;2022-08-01T06:52:34;30.10;61.44
65203;HTU21D;51788;45.124;38.966;2022-08-01T06:55:00;30.21;61.28
65203;HTU21D;51788;45.124;38.966;2022-08-01T06:57:27;30.16;61.03
65203;HTU21D;51788;45.124;38.966;2022-08-01T06:59:54;29.95;61.47
65203;HTU21D;51788;45.124;38.966;2022-08-01T07:02:22;29.93;61.50
65203;HTU21D;51788;45.124;38.966;2022-08-01T07:04:48;29.96;61.41
65203;HTU21D;51788;45.124;38.966;2022-08-01T07:07:17;29.98;61.55
65203;HTU21D;51788;45.124;38.966;2022-08-01T07:09:43;30.04;61.54
65203;HTU21D;51788;45.124;38.966;2022-08-01T07:12:09;30.18;61.37
65203;HTU21D;51788;45.124;38.966;2022-08-01T07:14:35;30.27;60.83
65203;HTU21D;51788;45.124;38.966;2022-08-01T07:17:01;30.28;60.80
65203;HTU21D;51788;45.124;38.966;2022-08-01T07:19:27;30.38;60.63
65203;HTU21D;51788;45.124;38.966;2022-08-01T07:21:53;30.33;60.61
65203;HTU21D;51788;45.124;38.966;2022-08-01T07:24:19;30.37;60.47
65203;HTU21D;51788;45.124;38.966;2022-08-01T07:26:47;30.50;59.96
65203;HTU21D;51788;45.124;38.966;2022-08-01T07:29:13;30.53;59.51
65203;HTU21D;51788;45.124;38.966;2022-08-01T07:31:39;30.45;59.51
65203;HTU21D;51788;45.124;38.966;2022-08-01T07:34:05;30.48;59.16
65203;HTU21D;51788;45.124;38.966;2022-08-01T07:36:31;30.61;59.19
65203;HTU21D;51788;45.124;38.966;2022-08-01T07:38:57;30.77;58.32
65203;HTU21D;51788;45.124;38.966;2022-08-01T07:41:23;30.79;57.45
65203;HTU21D;51788;45.124;38.966;2022-08-01T07:43:49;30.67;57.01
65203;HTU21D;51788;45.124;38.966;2022-08-01T07:46:16;30.69;57.14
65203;HTU21D;51788;45.124;38.966;2022-08-01T07:48:42;30.74;57.16
65203;HTU21D;51788;45.124;38.966;2022-08-01T07:51:08;30.72;57.17
65203;HTU21D;51788;45.124;38.966;2022-08-01T07:53:36;30.79;57.13
65203;HTU21D;51788;45.124;38.966;2022-08-01T07:56:03;30.87;57.03
65203;HTU21D;51788;45.124;38.966;2022-08-01T07:58:32;31.00;56.84
65203;HTU21D;51788;45.124;38.966;2022-08-01T08:00:58;31.05;56.32
65203;HTU21D;51788;45.124;38.966;2022-08-01T08:03:24;31.08;56.30
65203;HTU21D;51788;45.124;38.966;2022-08-01T08:05:50;31.10;56.03
65203;HTU21D;51788;45.124;38.966;2022-08-01T08:08:16;31.12;55.95
65203;HTU21D;51788;45.124;38.966;2022-08-01T08:10:44;31.19;56.20
65203;HTU21D;51788;45.124;38.966;2022-08-01T08:13:10;31.31;55.95
65203;HTU21D;51788;45.124;38.966;2022-08-01T08:15:36;31.35;55.51
65203;HTU21D;51788;45.124;38.966;2022-08-01T08:18:05;31.43;55.52
65203;HTU21D;51788;45.124;38.966;2022-08-01T08:20:31;31.55;55.11
65203;HTU21D;51788;45.124;38.966;2022-08-01T08:22:58;31.58;55.05
65203;HTU21D;51788;45.124;38.966;2022-08-01T08:25:25;31.44;55.17
65203;HTU21D;51788;45.124;38.966;2022-08-01T08:27:51;31.40;55.39
65203;HTU21D;51788;45.124;38.966;2022-08-01T08:30:17;31.49;55.29
65203;HTU21D;51788;45.124;38.966;2022-08-01T08:32:44;31.63;54.80
65203;HTU21D;51788;45.124;38.966;2022-08-01T08:35:10;31.60;54.79
65203;HTU21D;51788;45.124;38.966;2022-08-01T08:37:37;31.68;54.10
65203;HTU21D;51788;45.124;38.966;2022-08-01T08:40:04;31.79;53.36
65203;HTU21D;51788;45.124;38.966;2022-08-01T08:42:31;31.86;52.56
65203;HTU21D;51788;45.124;38.966;2022-08-01T08:44:57;31.85;52.07
65203;HTU21D;51788;45.124;38.966;2022-08-01T08:47:24;31.90;52.06
65203;HTU21D;51788;45.124;38.966;2022-08-01T08:49:53;32.02;51.88
65203;HTU21D;51788;45.124;38.966;2022-08-01T08:52:21;32.09;51.12
65203;HTU21D;51788;45.124;38.966;2022-08-01T08:54:48;32.03;50.92
65203;HTU21D;51788;45.124;38.966;2022-08-01T08:57:15;31.89;51.00
65203;HTU21D;51788;45.124;38.966;2022-08-01T08:59:44;31.90;50.63
65203;HTU21D;51788;45.124;38.966;2022-08-01T09:02:10;31.96;50.08
65203;HTU21D;51788;45.124;38.966;2022-08-01T09:04:37;32.01;50.27
65203;HTU21D;51788;45.124;38.966;2022-08-01T09:07:06;32.15;49.67
65203;HTU21D;51788;45.124;38.966;2022-08-01T09:09:34;32.12;49.18
65203;HTU21D;51788;45.124;38.966;2022-08-01T09:12:00;32.16;48.93
65203;HTU21D;51788;45.124;38.966;2022-08-01T09:14:27;32.22;47.68
65203;HTU21D;51788;45.124;38.966;2022-08-01T09:17:05;32.28;47.79
65203;HTU21D;51788;45.124;38.966;2022-08-01T09:19:42;32.39;46.80
65203;HTU21D;51788;45.124;38.966;2022-08-01T09:22:10;32.35;46.68
65203;HTU21D;51788;45.124;38.966;2022-08-01T09:24:38;32.22;46.99
65203;HTU21D;51788;45.124;38.966;2022-08-01T09:27:20;32.20;47.05
65203;HTU21D;51788;45.124;38.966;2022-08-01T09:29:53;32.22;46.73
65203;HTU21D;51788;45.124;38.966;2022-08-01T09:32:23;32.26;46.82
65203;HTU21D;51788;45.124;38.966;2022-08-01T09:34:48;32.32;46.96
65203;HTU21D;51788;45.124;38.966;2022-08-01T09:37:15;32.40;46.67
65203;HTU21D;51788;45.124;38.966;2022-08-01T09:39:43;32.34;46.57
65203;HTU21D;51788;45.124;38.966;2022-08-01T09:42:25;32.33;45.66
65203;HTU21D;51788;45.124;38.966;2022-08-01T09:44:51;32.30;46.35
65203;HTU21D;51788;45.124;38.966;2022-08-01T09:47:19;32.34;46.12
65203;HTU21D;51788;45.124;38.966;2022-08-01T09:49:54;32.34;45.92
65203;HTU21D;51788;45.124;38.966;2022-08-01T09:52:22;32.33;46.17
65203;HTU21D;51788;45.124;38.966;2022-08-01T09:55:00;32.41;46.16
65203;HTU21D;51788;45.124;38.966;2022-08-01T09:57:27;32.49;46.29
65203;HTU21D;51788;45.124;38.966;2022-08-01T09:59:55;32.57;46.08
65203;HTU21D;51788;45.124;38.966;2022-08-01T10:02:36;32.60;46.19
65203;HTU21D;51788;45.124;38.966;2022-08-01T10:05:05;32.70;46.31
65203;HTU21D;51788;45.124;38.966;2022-08-01T10:07:31;32.76;46.32
65203;HTU21D;51788;45.124;38.966;2022-08-01T10:10:14;32.81;45.92
65203;HTU21D;51788;45.124;38.966;2022-08-01T10:12:42;32.78;46.25
65203;HTU21D;51788;45.124;38.966;2022-08-01T10:15:08;33.08;46.02
65203;HTU21D;51788;45.124;38.966;2022-08-01T10:17:38;33.13;46.03
65203;HTU21D;51788;45.124;38.966;2022-08-01T10:20:06;33.07;46.22
65203;HTU21D;51788;45.124;38.966;2022-08-01T10:22:34;33.06;46.22
65203;HTU21D;51788;45.124;38.966;2022-08-01T10:25:03;33.03;46.51
65203;HTU21D;51788;45.124;38.966;2022-08-01T10:27:32;33.11;46.51
65203;HTU21D;51788;45.124;38.966;2022-08-01T10:30:02;33.11;46.00
65203;HTU21D;51788;45.124;38.966;2022-08-01T10:32:30;33.03;46.06
65203;HTU21D;51788;45.124;38.966;2022-08-01T10:34:58;33.04;46.06
65203;HTU21D;51788;45.124;38.966;2022-08-01T10:37:24;32.94;46.23
65203;HTU21D;51788;45.124;38.966;2022-08-01T10:39:54;32.90;46.36
65203;HTU21D;51788;45.124;38.966;2022-08-01T10:42:21;33.02;46.57
65203;HTU21D;51788;45.124;38.966;2022-08-01T10:44:48;33.15;46.54
65203;HTU21D;51788;45.124;38.966;2022-08-01T10:47:18;33.12;46.54
65203;HTU21D;51788;45.124;38.966;2022-08-01T10:49:53;33.15;46.64
65203;HTU21D;51788;45.124;38.966;2022-08-01T10:52:22;33.17;46.70
65203;HTU21D;51788;45.124;38.966;2022-08-01T10:54:48;33.12;46.64
65203;HTU21D;51788;45.124;38.966;2022-08-01T10:57:14;33.08;46.94
65203;HTU21D;51788;45.124;38.966;2022-08-01T10:59:51;33.14;46.82
65203;HTU21D;51788;45.124;38.966;2022-08-01T11:02:28;33.19;46.77
65203;HTU21D;51788;45.124;38.966;2022-08-01T11:05:01;33.20;46.86
65203;HTU21D;51788;45.124;38.966;2022-08-01T11:07:48;33.15;46.99
65203;HTU21D;51788;45.124;38.966;2022-08-01T11:12:48;33.17;46.90
65203;HTU21D;51788;45.124;38.966;2022-08-01T11:17:45;33.19;46.79
65203;HTU21D;51788;45.124;38.966;2022-08-01T11:25:23;33.46;46.36
65203;HTU21D;51788;45.124;38.966;2022-08-01T11:30:45;33.70;46.00
65203;HTU21D;51788;45.124;38.966;2022-08-01T11:33:13;33.73;45.77
65203;HTU21D;51788;45.124;38.966;2022-08-01T11:38:45;33.79;45.70
65203;HTU21D;51788;45.124;38.966;2022-08-01T11:41:26;33.61;45.93
65203;HTU21D;51788;45.124;38.966;2022-08-01T11:44:05;33.38;46.24
65203;HTU21D;51788;45.124;38.966;2022-08-01T11:49:29;33.23;46.73
65203;HTU21D;51788;45.124;38.966;2022-08-01T11:54:36;33.15;46.72
65203;HTU21D;51788;45.124;38.966;2022-08-01T11:57:06;33.06;46.90
65203;HTU21D;51788;45.124;38.966;2022-08-01T11:59:59;33.01;47.12
65203;HTU21D;51788;45.124;38.966;2022-08-01T12:02:29;32.96;47.35
65203;HTU21D;51788;45.124;38.966;2022-08-01T12:05:03;32.87;47.34
65203;HTU21D;51788;45.124;38.966;2022-08-01T12:07:30;32.78;47.63
65203;HTU21D;51788;45.124;38.966;2022-08-01T12:10:04;32.67;47.71
65203;HTU21D;51788;45.124;38.966;2022-08-01T12:12:31;32.56;47.79
65203;HTU21D;51788;45.124;38.966;2022-08-01T12:15:03;32.45;47.73
65203;HTU21D;51788;45.124;38.966;2022-08-01T12:20:05;32.26;48.13
65203;HTU21D;51788;45.124;38.966;2022-08-01T12:22:32;32.19;48.47
65203;HTU21D;51788;45.124;38.966;2022-08-01T12:25:17;32.14;48.51
65203;HTU21D;51788;45.124;38.966;2022-08-01T12:27:45;32.09;48.63
65203;HTU21D;51788;45.124;38.966;2022-08-01T12:30:13;32.04;48.79
65203;HTU21D;51788;45.124;38.966;2022-08-01T12:32:41;31.98;49.12
65203;HTU21D;51788;45.124;38.966;2022-08-01T12:37:38;31.92;49.65
65203;HTU21D;51788;45.124;38.966;2022-08-01T12:40:35;31.88;49.48
65203;HTU21D;51788;45.124;38.966;2022-08-01T12:43:04;31.85;49.63
65203;HTU21D;51788;45.124;38.966;2022-08-01T12:45:34;31.81;49.76
65203;HTU21D;51788;45.124;38.966;2022-08-01T12:48:01;31.76;49.92
65203;HTU21D;51788;45.124;38.966;2022-08-01T12:50:29;31.73;50.41
65203;HTU21D;51788;45.124;38.966;2022-08-01T12:52:57;31.68;50.89
65203;HTU21D;51788;45.124;38.966;2022-08-01T12:55:26;31.61;51.46
65203;HTU21D;51788;45.124;38.966;2022-08-01T12:58:22;31.57;52.04
65203;HTU21D;51788;45.124;38.966;2022-08-01T13:00:50;31.52;52.28
65203;HTU21D;51788;45.124;38.966;2022-08-01T13:03:18;31.48;52.50
65203;HTU21D;51788;45.124;38.966;2022-08-01T13:05:53;31.41;52.78
65203;HTU21D;51788;45.124;38.966;2022-08-01T13:08:32;31.34;52.99
65203;HTU21D;51788;45.124;38.966;2022-08-01T13:11:08;31.26;53.34
65203;HTU21D;51788;45.124;38.966;2022-08-01T13:13:42;31.21;53.43
65203;HTU21D;51788;45.124;38.966;2022-08-01T13:16:09;31.20;53.43
65203;HTU21D;51788;45.124;38.966;2022-08-01T13:18:36;31.19;53.52
65203;HTU21D;51788;45.124;38.966;2022-08-01T13:21:15;31.19;53.89
65203;HTU21D;51788;45.124;38.966;2022-08-01T13:24:07;31.20;55.24
65203;HTU21D;51788;45.124;38.966;2022-08-01T13:26:47;31.21;55.90
65203;HTU21D;51788;45.124;38.966;2022-08-01T13:29:15;31.16;56.36
65203;HTU21D;51788;45.124;38.966;2022-08-01T13:31:42;31.07;56.93
65203;HTU21D;51788;45.124;38.966;2022-08-01T13:34:09;31.04;57.45
65203;HTU21D;51788;45.124;38.966;2022-08-01T13:36:36;31.02;57.89
65203;HTU21D;51788;45.124;38.966;2022-08-01T13:39:03;31.00;58.54
65203;HTU21D;51788;45.124;38.966;2022-08-01T13:41:47;30.94;59.05
65203;HTU21D;51788;45.124;38.966;2022-08-01T13:44:14;30.91;59.42
65203;HTU21D;51788;45.124;38.966;2022-08-01T13:46:41;30.85;59.87
65203;HTU21D;51788;45.124;38.966;2022-08-01T13:49:09;30.84;59.84
65203;HTU21D;51788;45.124;38.966;2022-08-01T13:51:36;30.91;59.41
65203;HTU21D;51788;45.124;38.966;2022-08-01T13:54:03;30.98;59.00
65203;HTU21D;51788;45.124;38.966;2022-08-01T13:56:29;31.01;58.77
65203;HTU21D;51788;45.124;38.966;2022-08-01T13:58:56;30.87;58.99
65203;HTU21D;51788;45.124;38.966;2022-08-01T14:01:22;30.66;59.63
65203;HTU21D;51788;45.124;38.966;2022-08-01T14:03:50;30.52;59.92
65203;HTU21D;51788;45.124;38.966;2022-08-01T14:06:17;30.48;60.14
65203;HTU21D;51788;45.124;38.966;2022-08-01T14:08:44;30.53;60.30
65203;HTU21D;51788;45.124;38.966;2022-08-01T14:11:11;30.54;61.40
65203;HTU21D;51788;45.124;38.966;2022-08-01T14:13:37;30.37;63.53
65203;HTU21D;51788;45.124;38.966;2022-08-01T14:16:05;30.16;64.62
65203;HTU21D;51788;45.124;38.966;2022-08-01T14:18:31;29.88;65.93
65203;HTU21D;51788;45.124;38.966;2022-08-01T14:20:57;29.37;68.16
65203;HTU21D;51788;45.124;38.966;2022-08-01T14:23:23;28.90;69.77
65203;HTU21D;51788;45.124;38.966;2022-08-01T14:25:49;28.37;70.84
65203;HTU21D;51788;45.124;38.966;2022-08-01T14:28:15;27.93;71.13
65203;HTU21D;51788;45.124;38.966;2022-08-01T14:30:42;27.54;71.72
65203;HTU21D;51788;45.124;38.966;2022-08-01T14:33:09;27.26;72.29
65203;HTU21D;51788;45.124;38.966;2022-08-01T14:35:35;26.99;73.08
65203;HTU21D;51788;45.124;38.966;2022-08-01T14:38:02;26.75;73.77
65203;HTU21D;51788;45.124;38.966;2022-08-01T14:40:28;26.57;74.36
65203;HTU21D;51788;45.124;38.966;2022-08-01T14:42:54;26.33;75.74
65203;HTU21D;51788;45.124;38.966;2022-08-01T14:45:20;26.13;76.90
65203;HTU21D;51788;45.124;38.966;2022-08-01T14:47:46;25.86;77.45
65203;HTU21D;51788;45.124;38.966;2022-08-01T14:50:14;25.43;78.37
65203;HTU21D;51788;45.124;38.966;2022-08-01T14:52:42;25.06;78.90
65203;HTU21D;51788;45.124;38.966;2022-08-01T14:55:10;24.86;79.63
65203;HTU21D;51788;45.124;38.966;2022-08-01T14:57:37;24.78;79.75
65203;HTU21D;51788;45.124;38.966;2022-08-01T15:00:06;24.69;80.01
65203;HTU21D;51788;45.124;38.966;2022-08-01T15:02:33;24.42;80.61
65203;HTU21D;51788;45.124;38.966;2022-08-01T15:04:59;24.01;81.81
65203;HTU21D;51788;45.124;38.966;2022-08-01T15:07:25;23.88;82.27
65203;HTU21D;51788;45.124;38.966;2022-08-01T15:09:50;23.97;82.77
65203;HTU21D;51788;45.124;38.966;2022-08-01T15:12:17;24.12;83.38
65203;HTU21D;51788;45.124;38.966;2022-08-01T15:14:43;24.21;83.32
65203;HTU21D;51788;45.124;38.966;2022-08-01T15:17:25;24.19;83.26
65203;HTU21D;51788;45.124;38.966;2022-08-01T15:19:55;24.14;83.47
65203;HTU21D;51788;45.124;38.966;2022-08-01T15:22:23;24.40;83.04
65203;HTU21D;51788;45.124;38.966;2022-08-01T15:24:50;24.65;82.39
65203;HTU21D;51788;45.124;38.966;2022-08-01T15:27:16;24.82;82.08
65203;HTU21D;51788;45.124;38.966;2022-08-01T15:29:43;24.92;81.78
65203;HTU21D;51788;45.124;38.966;2022-08-01T15:32:09;24.90;81.15
65203;HTU21D;51788;45.124;38.966;2022-08-01T15:34:36;24.69;79.91
65203;HTU21D;51788;45.124;38.966;2022-08-01T15:37:03;24.46;79.62
65203;HTU21D;51788;45.124;38.966;2022-08-01T15:39:31;24.50;78.95
65203;HTU21D;51788;45.124;38.966;2022-08-01T15:42:25;24.50;77.79
65203;HTU21D;51788;45.124;38.966;2022-08-01T15:44:50;24.17;78.63
65203;HTU21D;51788;45.124;38.966;2022-08-01T15:47:16;23.80;79.60
65203;HTU21D;51788;45.124;38.966;2022-08-01T15:49:42;23.71;79.59